Sedov — UELO — position and weather

sailwx.info

Track history (hours):
 
Tides and Currents Weather Stations Pressure Air Temp Water Temp Dewpoint Dewpoint Depression Visibility Wind Speed Wind Dir Waves Ship Positions

Sedov (Russia)

Last reported at 2020-Aug-19 14:00 UTC. Time now 2020-Oct-01 11:32 UTC.
Position N 42°57' E 132°03'.
Warning: this ship's position is 42 days out of date.

Length 108 m; draft 6.2 m.

Type: Sailing vessel. MMSI: 273510000.

Date/timePositionNaut miles runAvg speedWind from/ knotsBaromVisibWave heightAir tempDewpointWater temp
2020-Aug-19 14:00N 42°57' E 132°03'11 3.6
2020-Aug-19 11:00N 43°04' E 131°53'0 0.0
2020-Aug-19 08:23N 43°04' E 131°53'0 0.1
2020-Aug-19 07:30N 43°04' E 131°53'1 2.0
2020-Aug-19 07:00N 43°05' E 131°53'2 0.4
2020-Aug-19 03:00N 43°07' E 131°53'0 0.0
2020-Aug-19 01:58N 43°07' E 131°53'0 0.0
2020-Aug-19 01:25N 43°07' E 131°53'0 0.0
2020-Aug-19 00:28N 43°07' E 131°53'0 0.0
2020-Aug-19 00:00N 43°07' E 131°53'0 0.0
2020-Aug-18 22:57N 43°07' E 131°53'0 0.0
2020-Aug-18 19:28N 43°07' E 131°53'0 0.0
2020-Aug-18 16:55N 43°07' E 131°53'0 0.0
2020-Aug-18 15:59N 43°07' E 131°53'0 0.0
2020-Aug-18 10:57N 43°07' E 131°53'0 0.0
2020-Aug-18 06:27N 43°07' E 131°53'0 0.0
2020-Aug-18 05:00N 43°07' E 131°53'0 0.0
2020-Aug-18 02:27N 43°07' E 131°53'0 0.0
2020-Aug-17 23:30N 43°07' E 131°53'0 0.0
2020-Aug-17 21:29N 43°07' E 131°53'0 0.0
2020-Aug-17 20:27N 43°07' E 131°53'0 0.0
2020-Aug-17 19:30N 43°07' E 131°53'0 0.0
2020-Aug-17 16:59N 43°07' E 131°53'0 0.0
2020-Aug-17 12:30N 43°07' E 131°53'0 0.0
2020-Aug-17 07:59N 43°07' E 131°53'0 0.0
2020-Aug-17 07:30N 43°07' E 131°53'0 0.0
2020-Aug-17 06:29N 43°07' E 131°53'0 0.0
2020-Aug-17 05:00N 43°07' E 131°53'0 0.0
2020-Aug-17 02:29N 43°07' E 131°53'0 0.0
2020-Aug-16 21:59N 43°07' E 131°53'0 0.0
2020-Aug-16 21:29N 43°07' E 131°53'0 0.0
2020-Aug-16 20:29N 43°07' E 131°53'0 0.0
2020-Aug-16 19:29N 43°07' E 131°53'0 0.0
2020-Aug-16 13:59N 43°07' E 131°53'0 0.0
2020-Aug-16 10:57N 43°07' E 131°53'0 0.0
2020-Aug-16 09:57N 43°07' E 131°53'0 0.0
2020-Aug-16 06:58N 43°07' E 131°53'0 0.0
2020-Aug-16 05:58N 43°07' E 131°53'0 0.0
2020-Aug-16 02:28N 43°07' E 131°53'0 0.0
2020-Aug-16 00:58N 43°07' E 131°53'0 0.0
2020-Aug-16 00:19N 43°07' E 131°53'0 0.0
2020-Aug-15 20:28N 43°07' E 131°53'0 0.0
2020-Aug-15 14:57N 43°07' E 131°53'0 0.0
2020-Aug-15 12:59N 43°07' E 131°53'0 0.0
2020-Aug-15 12:29N 43°07' E 131°53'0 0.0
2020-Aug-15 11:57N 43°07' E 131°53'0 0.0
2020-Aug-15 08:59N 43°07' E 131°53'0 0.0
2020-Aug-15 08:27N 43°07' E 131°53'0 0.0
2020-Aug-15 07:28N 43°07' E 131°53'0 0.0
2020-Aug-15 04:00N 43°07' E 131°53'0 0.0
2020-Aug-15 02:57N 43°07' E 131°53'0 0.0
2020-Aug-14 17:00N 43°07' E 131°53'0 0.0
2020-Aug-14 15:30N 43°07' E 131°53'0 0.0
2020-Aug-14 12:57N 43°07' E 131°53'0 0.0
2020-Aug-14 12:00N 43°07' E 131°53'0 0.1
2020-Aug-14 10:30N 43°07' E 131°53'2 1.9
2020-Aug-14 09:29N 43°05' E 131°53'0 0.0
2020-Aug-14 08:54N 43°05' E 131°53'1 0.4
2020-Aug-14 06:31N 43°04' E 131°54'16 4.7
2020-Aug-14 03:00N 43°08' E 132°16'1 1.0
2020-Aug-14 02:16N 43°08' E 132°17'10 3.0
2020-Aug-13 23:00N 42°59' E 132°11'5 4.5
2020-Aug-13 22:00N 42°56' E 132°08'4 7.6
2020-Aug-13 21:30N 42°52' E 132°10'4 7.3
2020-Aug-13 21:00N 42°49' E 132°13'44 5.7
2020-Aug-13 13:16N 42°06' E 132°25'25 0.9
2020-Aug-12 09:43N 41°50' E 132°50'  
Track history (hours):
 
Tides and Currents Weather Stations Pressure Air Temp Water Temp Dewpoint Dewpoint Depression Visibility Wind Speed Wind Dir Waves Ship Positions

Sedov (Russia)

Last reported at 2020-Aug-19 14:00 UTC. Time now 2020-Oct-01 11:32 UTC.
Position N 42°57' E 132°03'.
Warning: this ship's position is 42 days out of date.

Length 108 m; draft 6.2 m.

Type: Sailing vessel. MMSI: 273510000.

Date/timePositionNaut miles runAvg speedWind from/ knotsBaromVisibWave heightAir tempDewpointWater temp
2020-Aug-19 14:00N 42°57' E 132°03'11 3.6
2020-Aug-19 11:00N 43°04' E 131°53'0 0.0
2020-Aug-19 08:23N 43°04' E 131°53'0 0.1
2020-Aug-19 07:30N 43°04' E 131°53'1 2.0
2020-Aug-19 07:00N 43°05' E 131°53'2 0.4
2020-Aug-19 03:00N 43°07' E 131°53'0 0.0
2020-Aug-19 01:58N 43°07' E 131°53'0 0.0
2020-Aug-19 01:25N 43°07' E 131°53'0 0.0
2020-Aug-19 00:28N 43°07' E 131°53'0 0.0
2020-Aug-19 00:00N 43°07' E 131°53'0 0.0
2020-Aug-18 22:57N 43°07' E 131°53'0 0.0
2020-Aug-18 19:28N 43°07' E 131°53'0 0.0
2020-Aug-18 16:55N 43°07' E 131°53'0 0.0
2020-Aug-18 15:59N 43°07' E 131°53'0 0.0
2020-Aug-18 10:57N 43°07' E 131°53'0 0.0
2020-Aug-18 06:27N 43°07' E 131°53'0 0.0
2020-Aug-18 05:00N 43°07' E 131°53'0 0.0
2020-Aug-18 02:27N 43°07' E 131°53'0 0.0
2020-Aug-17 23:30N 43°07' E 131°53'0 0.0
2020-Aug-17 21:29N 43°07' E 131°53'0 0.0
2020-Aug-17 20:27N 43°07' E 131°53'0 0.0
2020-Aug-17 19:30N 43°07' E 131°53'0 0.0
2020-Aug-17 16:59N 43°07' E 131°53'0 0.0
2020-Aug-17 12:30N 43°07' E 131°53'0 0.0
2020-Aug-17 07:59N 43°07' E 131°53'0 0.0
2020-Aug-17 07:30N 43°07' E 131°53'0 0.0
2020-Aug-17 06:29N 43°07' E 131°53'0 0.0
2020-Aug-17 05:00N 43°07' E 131°53'0 0.0
2020-Aug-17 02:29N 43°07' E 131°53'0 0.0
2020-Aug-16 21:59N 43°07' E 131°53'0 0.0
2020-Aug-16 21:29N 43°07' E 131°53'0 0.0
2020-Aug-16 20:29N 43°07' E 131°53'0 0.0
2020-Aug-16 19:29N 43°07' E 131°53'0 0.0
2020-Aug-16 13:59N 43°07' E 131°53'0 0.0
2020-Aug-16 10:57N 43°07' E 131°53'0 0.0
2020-Aug-16 09:57N 43°07' E 131°53'0 0.0
2020-Aug-16 06:58N 43°07' E 131°53'0 0.0
2020-Aug-16 05:58N 43°07' E 131°53'0 0.0
2020-Aug-16 02:28N 43°07' E 131°53'0 0.0
2020-Aug-16 00:58N 43°07' E 131°53'0 0.0
2020-Aug-16 00:19N 43°07' E 131°53'0 0.0
2020-Aug-15 20:28N 43°07' E 131°53'0 0.0
2020-Aug-15 14:57N 43°07' E 131°53'0 0.0
2020-Aug-15 12:59N 43°07' E 131°53'0 0.0
2020-Aug-15 12:29N 43°07' E 131°53'0 0.0
2020-Aug-15 11:57N 43°07' E 131°53'0 0.0
2020-Aug-15 08:59N 43°07' E 131°53'0 0.0
2020-Aug-15 08:27N 43°07' E 131°53'0 0.0
2020-Aug-15 07:28N 43°07' E 131°53'0 0.0
2020-Aug-15 04:00N 43°07' E 131°53'0 0.0
2020-Aug-15 02:57N 43°07' E 131°53'0 0.0
2020-Aug-14 17:00N 43°07' E 131°53'0 0.0
2020-Aug-14 15:30N 43°07' E 131°53'0 0.0
2020-Aug-14 12:57N 43°07' E 131°53'0 0.0
2020-Aug-14 12:00N 43°07' E 131°53'0 0.1
2020-Aug-14 10:30N 43°07' E 131°53'2 1.9
2020-Aug-14 09:29N 43°05' E 131°53'0 0.0
2020-Aug-14 08:54N 43°05' E 131°53'1 0.4
2020-Aug-14 06:31N 43°04' E 131°54'16 4.7
2020-Aug-14 03:00N 43°08' E 132°16'1 1.0
2020-Aug-14 02:16N 43°08' E 132°17'10 3.0
2020-Aug-13 23:00N 42°59' E 132°11'5 4.5
2020-Aug-13 22:00N 42°56' E 132°08'4 7.6
2020-Aug-13 21:30N 42°52' E 132°10'4 7.3
2020-Aug-13 21:00N 42°49' E 132°13'44 5.7
2020-Aug-13 13:16N 42°06' E 132°25'25 0.9
2020-Aug-12 09:43N 41°50' E 132°50'  

Dump ship's entire track history